Halesite, New York
Current Conditions -  °F | °C
As of 9:01 AM on Thursday 23 Oct 2014 (Local Time) from KFRG Reporting Station
Light Rain Light Rain  
Wind Chill: 51°   Ceiling: 2200
Heat Index: 51°   Visibility: 7mi
Dew Point: 48°   Wind: 13mph
Humidity: 89%   Direction: 340°NNW
Pressure: 29.66"   Gusts: 18mph
Location:  40.8966°N, 73.4362°W
Report Text: KFRG 231301Z 34011G16KT 7SM -RA FEW010 BKN022 OVC070 11/09 A2966 RMK AO2 P0001 T01060089
Loading
Personal Weather Stations






























Interactive Weather Map
Tropical Storm Tracking
New forecast layout! Learn more

10-Day Weather Forecast

Advertisements
Track Severe Weather on mobile